sensor_id;sensor_type;location;lat;lon;timestamp;P1;durP1;ratioP1;P2;durP2;ratioP2
1811;SDS011;904;47.814;11.134;2022-11-12T00:01:00;11.63;;;8.13;;
1811;SDS011;904;47.814;11.134;2022-11-12T00:03:27;13.10;;;9.68;;
1811;SDS011;904;47.814;11.134;2022-11-12T00:05:54;23.10;;;9.27;;
1811;SDS011;904;47.814;11.134;2022-11-12T00:08:21;11.60;;;8.15;;
1811;SDS011;904;47.814;11.134;2022-11-12T00:10:50;14.13;;;8.57;;
1811;SDS011;904;47.814;11.134;2022-11-12T00:13:17;24.02;;;9.05;;
1811;SDS011;904;47.814;11.134;2022-11-12T00:15:45;16.00;;;8.63;;
1811;SDS011;904;47.814;11.134;2022-11-12T00:18:12;16.15;;;9.27;;
1811;SDS011;904;47.814;11.134;2022-11-12T00:20:39;15.32;;;8.30;;
1811;SDS011;904;47.814;11.134;2022-11-12T00:23:06;17.33;;;8.57;;
1811;SDS011;904;47.814;11.134;2022-11-12T00:25:34;15.95;;;8.70;;
1811;SDS011;904;47.814;11.134;2022-11-12T00:28:03;21.75;;;8.95;;
1811;SDS011;904;47.814;11.134;2022-11-12T00:30:31;11.60;;;9.05;;
1811;SDS011;904;47.814;11.134;2022-11-12T00:33:00;13.40;;;9.10;;
1811;SDS011;904;47.814;11.134;2022-11-12T00:35:28;20.48;;;9.02;;
1811;SDS011;904;47.814;11.134;2022-11-12T00:37:57;17.63;;;10.80;;
1811;SDS011;904;47.814;11.134;2022-11-12T00:40:24;12.75;;;8.80;;
1811;SDS011;904;47.814;11.134;2022-11-12T00:42:52;14.63;;;8.00;;
1811;SDS011;904;47.814;11.134;2022-11-12T00:45:21;10.38;;;8.20;;
1811;SDS011;904;47.814;11.134;2022-11-12T00:47:49;12.02;;;7.97;;
1811;SDS011;904;47.814;11.134;2022-11-12T00:50:19;11.40;;;8.82;;
1811;SDS011;904;47.814;11.134;2022-11-12T00:52:46;24.33;;;8.23;;
1811;SDS011;904;47.814;11.134;2022-11-12T00:55:13;13.95;;;8.52;;
1811;SDS011;904;47.814;11.134;2022-11-12T00:57:40;17.27;;;8.70;;
1811;SDS011;904;47.814;11.134;2022-11-12T01:00:13;14.35;;;8.38;;
1811;SDS011;904;47.814;11.134;2022-11-12T01:02:43;11.98;;;8.10;;
1811;SDS011;904;47.814;11.134;2022-11-12T01:05:10;11.38;;;8.68;;
1811;SDS011;904;47.814;11.134;2022-11-12T01:07:38;15.27;;;10.23;;
1811;SDS011;904;47.814;11.134;2022-11-12T01:10:06;21.25;;;10.00;;
1811;SDS011;904;47.814;11.134;2022-11-12T01:12:34;18.02;;;7.80;;
1811;SDS011;904;47.814;11.134;2022-11-12T01:15:01;16.90;;;7.97;;
1811;SDS011;904;47.814;11.134;2022-11-12T01:17:28;12.35;;;6.60;;
1811;SDS011;904;47.814;11.134;2022-11-12T01:19:57;14.48;;;7.40;;
1811;SDS011;904;47.814;11.134;2022-11-12T01:22:24;15.85;;;7.78;;
1811;SDS011;904;47.814;11.134;2022-11-12T01:24:51;20.25;;;7.30;;
1811;SDS011;904;47.814;11.134;2022-11-12T01:27:20;16.42;;;7.35;;
1811;SDS011;904;47.814;11.134;2022-11-12T01:29:47;11.82;;;7.45;;
1811;SDS011;904;47.814;11.134;2022-11-12T01:32:15;13.88;;;7.60;;
1811;SDS011;904;47.814;11.134;2022-11-12T01:34:42;16.30;;;7.90;;
1811;SDS011;904;47.814;11.134;2022-11-12T01:37:10;14.32;;;7.40;;
1811;SDS011;904;47.814;11.134;2022-11-12T01:39:37;13.90;;;6.07;;
1811;SDS011;904;47.814;11.134;2022-11-12T01:42:05;14.35;;;7.00;;
1811;SDS011;904;47.814;11.134;2022-11-12T01:44:32;13.68;;;7.13;;
1811;SDS011;904;47.814;11.134;2022-11-12T01:47:02;13.75;;;8.05;;
1811;SDS011;904;47.814;11.134;2022-11-12T01:49:33;21.20;;;8.15;;
1811;SDS011;904;47.814;11.134;2022-11-12T01:52:12;15.73;;;8.15;;
1811;SDS011;904;47.814;11.134;2022-11-12T01:54:42;20.75;;;8.70;;
1811;SDS011;904;47.814;11.134;2022-11-12T01:57:14;13.57;;;6.20;;
1811;SDS011;904;47.814;11.134;2022-11-12T01:59:44;16.38;;;7.25;;
1811;SDS011;904;47.814;11.134;2022-11-12T02:02:14;11.88;;;6.82;;
1811;SDS011;904;47.814;11.134;2022-11-12T02:04:41;18.77;;;7.15;;
1811;SDS011;904;47.814;11.134;2022-11-12T02:07:09;19.00;;;6.72;;
1811;SDS011;904;47.814;11.134;2022-11-12T02:09:39;10.25;;;5.97;;
1811;SDS011;904;47.814;11.134;2022-11-12T02:12:07;11.73;;;5.72;;
1811;SDS011;904;47.814;11.134;2022-11-12T02:14:54;18.75;;;6.65;;
1811;SDS011;904;47.814;11.134;2022-11-12T02:17:20;9.85;;;5.28;;
1811;SDS011;904;47.814;11.134;2022-11-12T02:19:47;9.05;;;5.60;;
1811;SDS011;904;47.814;11.134;2022-11-12T02:22:18;17.73;;;5.90;;
1811;SDS011;904;47.814;11.134;2022-11-12T02:24:45;8.82;;;5.40;;
1811;SDS011;904;47.814;11.134;2022-11-12T02:27:12;14.05;;;5.35;;
1811;SDS011;904;47.814;11.134;2022-11-12T02:29:39;12.40;;;6.10;;
1811;SDS011;904;47.814;11.134;2022-11-12T02:32:10;13.05;;;5.00;;
1811;SDS011;904;47.814;11.134;2022-11-12T02:34:38;10.20;;;5.88;;
1811;SDS011;904;47.814;11.134;2022-11-12T02:37:05;12.13;;;5.97;;
1811;SDS011;904;47.814;11.134;2022-11-12T02:39:34;12.25;;;6.40;;
1811;SDS011;904;47.814;11.134;2022-11-12T02:42:02;12.60;;;6.28;;
1811;SDS011;904;47.814;11.134;2022-11-12T02:44:29;16.08;;;5.97;;
1811;SDS011;904;47.814;11.134;2022-11-12T02:46:57;7.70;;;4.57;;
1811;SDS011;904;47.814;11.134;2022-11-12T02:49:24;7.63;;;5.50;;
1811;SDS011;904;47.814;11.134;2022-11-12T02:51:51;12.02;;;6.43;;
1811;SDS011;904;47.814;11.134;2022-11-12T02:54:18;10.63;;;5.00;;
1811;SDS011;904;47.814;11.134;2022-11-12T02:56:47;7.15;;;5.45;;
1811;SDS011;904;47.814;11.134;2022-11-12T02:59:14;6.97;;;4.82;;
1811;SDS011;904;47.814;11.134;2022-11-12T03:01:41;9.90;;;5.07;;
1811;SDS011;904;47.814;11.134;2022-11-12T03:04:08;5.72;;;4.60;;
1811;SDS011;904;47.814;11.134;2022-11-12T03:06:35;9.93;;;5.40;;
1811;SDS011;904;47.814;11.134;2022-11-12T03:09:03;6.80;;;5.40;;
1811;SDS011;904;47.814;11.134;2022-11-12T03:11:30;13.05;;;5.13;;
1811;SDS011;904;47.814;11.134;2022-11-12T03:14:01;12.70;;;6.60;;
1811;SDS011;904;47.814;11.134;2022-11-12T03:16:28;9.40;;;5.45;;
1811;SDS011;904;47.814;11.134;2022-11-12T03:18:56;9.20;;;5.57;;
1811;SDS011;904;47.814;11.134;2022-11-12T03:21:23;10.90;;;5.55;;
1811;SDS011;904;47.814;11.134;2022-11-12T03:23:50;15.18;;;6.13;;
1811;SDS011;904;47.814;11.134;2022-11-12T03:26:17;12.27;;;5.68;;
1811;SDS011;904;47.814;11.134;2022-11-12T03:28:45;5.50;;;4.50;;
1811;SDS011;904;47.814;11.134;2022-11-12T03:31:13;6.97;;;5.25;;
1811;SDS011;904;47.814;11.134;2022-11-12T03:33:41;8.15;;;5.43;;
1811;SDS011;904;47.814;11.134;2022-11-12T03:36:08;11.20;;;5.45;;
1811;SDS011;904;47.814;11.134;2022-11-12T03:38:36;10.48;;;6.00;;
1811;SDS011;904;47.814;11.134;2022-11-12T03:41:03;13.55;;;5.32;;
1811;SDS011;904;47.814;11.134;2022-11-12T03:43:30;9.52;;;5.10;;
1811;SDS011;904;47.814;11.134;2022-11-12T03:45:57;6.97;;;5.05;;
1811;SDS011;904;47.814;11.134;2022-11-12T03:48:27;7.95;;;4.70;;
1811;SDS011;904;47.814;11.134;2022-11-12T03:50:56;6.97;;;4.80;;
1811;SDS011;904;47.814;11.134;2022-11-12T03:53:23;14.10;;;5.47;;
1811;SDS011;904;47.814;11.134;2022-11-12T03:55:51;12.45;;;5.40;;
1811;SDS011;904;47.814;11.134;2022-11-12T03:58:18;7.90;;;4.97;;
1811;SDS011;904;47.814;11.134;2022-11-12T04:00:45;16.48;;;4.68;;
1811;SDS011;904;47.814;11.134;2022-11-12T04:03:12;6.97;;;4.45;;
1811;SDS011;904;47.814;11.134;2022-11-12T04:05:41;8.30;;;4.70;;
1811;SDS011;904;47.814;11.134;2022-11-12T04:08:25;8.63;;;4.55;;
1811;SDS011;904;47.814;11.134;2022-11-12T04:11:02;4.47;;;3.80;;
1811;SDS011;904;47.814;11.134;2022-11-12T04:13:30;7.20;;;4.35;;
1811;SDS011;904;47.814;11.134;2022-11-12T04:15:58;9.00;;;4.35;;
1811;SDS011;904;47.814;11.134;2022-11-12T04:18:44;8.32;;;3.97;;
1811;SDS011;904;47.814;11.134;2022-11-12T04:21:33;8.15;;;5.30;;
1811;SDS011;904;47.814;11.134;2022-11-12T04:24:22;9.75;;;4.80;;
1811;SDS011;904;47.814;11.134;2022-11-12T04:27:09;8.43;;;4.50;;
1811;SDS011;904;47.814;11.134;2022-11-12T04:29:38;12.98;;;5.78;;
1811;SDS011;904;47.814;11.134;2022-11-12T04:32:23;8.57;;;5.85;;
1811;SDS011;904;47.814;11.134;2022-11-12T04:34:50;7.45;;;5.55;;
1811;SDS011;904;47.814;11.134;2022-11-12T04:37:20;7.85;;;4.90;;
1811;SDS011;904;47.814;11.134;2022-11-12T04:39:47;10.32;;;8.40;;
1811;SDS011;904;47.814;11.134;2022-11-12T04:42:14;8.02;;;6.75;;
1811;SDS011;904;47.814;11.134;2022-11-12T04:45:14;8.05;;;5.35;;
1811;SDS011;904;47.814;11.134;2022-11-12T04:47:41;12.98;;;5.30;;
1811;SDS011;904;47.814;11.134;2022-11-12T04:50:12;12.20;;;5.30;;
1811;SDS011;904;47.814;11.134;2022-11-12T04:52:42;10.27;;;5.75;;
1811;SDS011;904;47.814;11.134;2022-11-12T04:55:10;7.47;;;5.85;;
1811;SDS011;904;47.814;11.134;2022-11-12T04:57:37;10.48;;;6.30;;
1811;SDS011;904;47.814;11.134;2022-11-12T05:00:05;8.02;;;5.32;;
1811;SDS011;904;47.814;11.134;2022-11-12T05:02:33;6.25;;;4.68;;
1811;SDS011;904;47.814;11.134;2022-11-12T05:05:00;7.78;;;4.22;;
1811;SDS011;904;47.814;11.134;2022-11-12T05:07:27;6.40;;;4.05;;
1811;SDS011;904;47.814;11.134;2022-11-12T05:09:58;7.30;;;4.88;;
1811;SDS011;904;47.814;11.134;2022-11-12T05:12:25;5.85;;;4.47;;
1811;SDS011;904;47.814;11.134;2022-11-12T05:14:53;8.93;;;6.00;;
1811;SDS011;904;47.814;11.134;2022-11-12T05:17:20;9.82;;;4.70;;
1811;SDS011;904;47.814;11.134;2022-11-12T05:19:47;9.18;;;5.57;;
1811;SDS011;904;47.814;11.134;2022-11-12T05:22:14;12.07;;;5.45;;
1811;SDS011;904;47.814;11.134;2022-11-12T05:24:42;10.77;;;5.30;;
1811;SDS011;904;47.814;11.134;2022-11-12T05:27:12;8.52;;;4.82;;
1811;SDS011;904;47.814;11.134;2022-11-12T05:29:40;8.13;;;4.85;;
1811;SDS011;904;47.814;11.134;2022-11-12T05:32:08;9.10;;;4.25;;
1811;SDS011;904;47.814;11.134;2022-11-12T05:34:38;7.45;;;4.47;;
1811;SDS011;904;47.814;11.134;2022-11-12T05:37:06;8.13;;;4.53;;
1811;SDS011;904;47.814;11.134;2022-11-12T05:39:33;5.57;;;3.40;;
1811;SDS011;904;47.814;11.134;2022-11-12T05:42:01;4.97;;;3.75;;
1811;SDS011;904;47.814;11.134;2022-11-12T05:44:29;7.63;;;4.53;;
1811;SDS011;904;47.814;11.134;2022-11-12T05:46:56;5.07;;;3.72;;
1811;SDS011;904;47.814;11.134;2022-11-12T05:49:24;6.05;;;4.18;;
1811;SDS011;904;47.814;11.134;2022-11-12T05:51:51;6.70;;;4.20;;
1811;SDS011;904;47.814;11.134;2022-11-12T05:54:18;5.75;;;3.55;;
1811;SDS011;904;47.814;11.134;2022-11-12T05:56:45;6.63;;;5.00;;
1811;SDS011;904;47.814;11.134;2022-11-12T05:59:13;5.70;;;4.60;;
1811;SDS011;904;47.814;11.134;2022-11-12T06:01:42;5.78;;;3.60;;
1811;SDS011;904;47.814;11.134;2022-11-12T06:04:09;7.47;;;3.85;;
1811;SDS011;904;47.814;11.134;2022-11-12T06:06:38;5.68;;;3.95;;
1811;SDS011;904;47.814;11.134;2022-11-12T06:09:05;7.07;;;4.00;;
1811;SDS011;904;47.814;11.134;2022-11-12T06:11:33;8.88;;;4.30;;
1811;SDS011;904;47.814;11.134;2022-11-12T06:14:00;6.50;;;3.88;;
1811;SDS011;904;47.814;11.134;2022-11-12T06:16:28;5.32;;;4.00;;
1811;SDS011;904;47.814;11.134;2022-11-12T06:18:57;5.15;;;4.03;;
1811;SDS011;904;47.814;11.134;2022-11-12T06:21:24;4.80;;;3.78;;
1811;SDS011;904;47.814;11.134;2022-11-12T06:23:53;6.78;;;4.47;;
1811;SDS011;904;47.814;11.134;2022-11-12T06:26:22;5.90;;;4.32;;
1811;SDS011;904;47.814;11.134;2022-11-12T06:28:51;12.65;;;5.45;;
1811;SDS011;904;47.814;11.134;2022-11-12T06:31:18;13.10;;;4.93;;
1811;SDS011;904;47.814;11.134;2022-11-12T06:33:46;15.43;;;5.45;;
1811;SDS011;904;47.814;11.134;2022-11-12T06:36:16;16.63;;;6.50;;
1811;SDS011;904;47.814;11.134;2022-11-12T06:38:44;10.27;;;5.30;;
1811;SDS011;904;47.814;11.134;2022-11-12T06:41:11;7.97;;;5.05;;
1811;SDS011;904;47.814;11.134;2022-11-12T06:43:40;24.02;;;7.43;;
1811;SDS011;904;47.814;11.134;2022-11-12T06:46:08;9.82;;;6.47;;
1811;SDS011;904;47.814;11.134;2022-11-12T06:48:38;8.80;;;7.28;;
1811;SDS011;904;47.814;11.134;2022-11-12T06:51:06;16.17;;;7.63;;
1811;SDS011;904;47.814;11.134;2022-11-12T06:53:36;19.10;;;8.80;;
1811;SDS011;904;47.814;11.134;2022-11-12T06:56:04;14.27;;;8.35;;
1811;SDS011;904;47.814;11.134;2022-11-12T06:58:32;15.43;;;7.63;;
1811;SDS011;904;47.814;11.134;2022-11-12T07:01:04;21.75;;;8.10;;
1811;SDS011;904;47.814;11.134;2022-11-12T07:03:32;16.52;;;8.35;;
1811;SDS011;904;47.814;11.134;2022-11-12T07:06:02;18.30;;;8.40;;
1811;SDS011;904;47.814;11.134;2022-11-12T07:08:30;20.10;;;7.47;;
1811;SDS011;904;47.814;11.134;2022-11-12T07:10:59;16.92;;;9.07;;
1811;SDS011;904;47.814;11.134;2022-11-12T07:13:28;26.60;;;16.70;;
1811;SDS011;904;47.814;11.134;2022-11-12T07:15:56;31.83;;;22.65;;
1811;SDS011;904;47.814;11.134;2022-11-12T07:18:24;29.65;;;15.30;;
1811;SDS011;904;47.814;11.134;2022-11-12T07:20:51;22.60;;;10.95;;
1811;SDS011;904;47.814;11.134;2022-11-12T07:23:22;14.77;;;9.10;;
1811;SDS011;904;47.814;11.134;2022-11-12T07:25:54;14.13;;;9.65;;
1811;SDS011;904;47.814;11.134;2022-11-12T07:28:23;28.33;;;10.73;;
1811;SDS011;904;47.814;11.134;2022-11-12T07:30:54;22.48;;;11.05;;
1811;SDS011;904;47.814;11.134;2022-11-12T07:33:23;13.85;;;10.00;;
1811;SDS011;904;47.814;11.134;2022-11-12T07:35:57;16.55;;;9.75;;
1811;SDS011;904;47.814;11.134;2022-11-12T07:38:25;17.00;;;10.57;;
1811;SDS011;904;47.814;11.134;2022-11-12T07:40:57;13.85;;;9.77;;
1811;SDS011;904;47.814;11.134;2022-11-12T07:43:26;12.68;;;8.63;;
1811;SDS011;904;47.814;11.134;2022-11-12T07:45:56;16.33;;;8.25;;
1811;SDS011;904;47.814;11.134;2022-11-12T07:48:24;15.65;;;9.40;;
1811;SDS011;904;47.814;11.134;2022-11-12T07:50:51;9.75;;;8.70;;
1811;SDS011;904;47.814;11.134;2022-11-12T07:53:18;17.98;;;10.55;;
1811;SDS011;904;47.814;11.134;2022-11-12T07:55:51;12.80;;;8.70;;
1811;SDS011;904;47.814;11.134;2022-11-12T07:58:19;10.77;;;9.35;;
1811;SDS011;904;47.814;11.134;2022-11-12T08:00:47;12.43;;;9.70;;
1811;SDS011;904;47.814;11.134;2022-11-12T08:03:15;10.88;;;9.00;;
1811;SDS011;904;47.814;11.134;2022-11-12T08:05:42;10.10;;;8.85;;
1811;SDS011;904;47.814;11.134;2022-11-12T08:08:09;14.10;;;10.20;;
1811;SDS011;904;47.814;11.134;2022-11-12T08:10:36;10.05;;;8.45;;
1811;SDS011;904;47.814;11.134;2022-11-12T08:13:03;9.40;;;8.43;;
1811;SDS011;904;47.814;11.134;2022-11-12T08:15:31;9.32;;;7.93;;
1811;SDS011;904;47.814;11.134;2022-11-12T08:17:59;7.10;;;6.32;;
1811;SDS011;904;47.814;11.134;2022-11-12T08:20:26;9.70;;;7.93;;
1811;SDS011;904;47.814;11.134;2022-11-12T08:22:53;8.57;;;7.03;;
1811;SDS011;904;47.814;11.134;2022-11-12T08:25:25;8.18;;;6.82;;
1811;SDS011;904;47.814;11.134;2022-11-12T08:27:54;11.07;;;7.60;;
1811;SDS011;904;47.814;11.134;2022-11-12T08:30:22;7.72;;;6.95;;
1811;SDS011;904;47.814;11.134;2022-11-12T08:32:53;11.82;;;8.68;;
1811;SDS011;904;47.814;11.134;2022-11-12T08:35:23;12.23;;;8.65;;
1811;SDS011;904;47.814;11.134;2022-11-12T08:37:51;11.68;;;10.00;;
1811;SDS011;904;47.814;11.134;2022-11-12T08:40:22;7.82;;;7.03;;
1811;SDS011;904;47.814;11.134;2022-11-12T08:42:55;8.27;;;7.20;;
1811;SDS011;904;47.814;11.134;2022-11-12T08:45:22;7.60;;;6.28;;
1811;SDS011;904;47.814;11.134;2022-11-12T08:47:49;10.05;;;6.97;;
1811;SDS011;904;47.814;11.134;2022-11-12T08:50:16;11.32;;;6.38;;
1811;SDS011;904;47.814;11.134;2022-11-12T08:52:50;7.63;;;5.50;;
1811;SDS011;904;47.814;11.134;2022-11-12T08:55:17;7.60;;;5.30;;
1811;SDS011;904;47.814;11.134;2022-11-12T08:57:44;5.53;;;4.60;;
1811;SDS011;904;47.814;11.134;2022-11-12T09:00:11;4.40;;;3.67;;
1811;SDS011;904;47.814;11.134;2022-11-12T09:02:39;8.00;;;4.10;;
1811;SDS011;904;47.814;11.134;2022-11-12T09:05:06;4.30;;;3.90;;
1811;SDS011;904;47.814;11.134;2022-11-12T09:07:35;4.60;;;4.13;;
1811;SDS011;904;47.814;11.134;2022-11-12T09:10:02;4.77;;;3.90;;
1811;SDS011;904;47.814;11.134;2022-11-12T09:12:29;5.87;;;4.00;;
1811;SDS011;904;47.814;11.134;2022-11-12T09:14:56;4.27;;;3.87;;
1811;SDS011;904;47.814;11.134;2022-11-12T09:17:23;3.87;;;3.47;;
1811;SDS011;904;47.814;11.134;2022-11-12T09:19:50;4.10;;;3.67;;
1811;SDS011;904;47.814;11.134;2022-11-12T09:22:17;5.30;;;4.17;;
1811;SDS011;904;47.814;11.134;2022-11-12T09:24:45;4.30;;;3.30;;
1811;SDS011;904;47.814;11.134;2022-11-12T09:27:12;3.70;;;3.20;;
1811;SDS011;904;47.814;11.134;2022-11-12T09:29:39;10.43;;;6.90;;
1811;SDS011;904;47.814;11.134;2022-11-12T09:32:06;6.00;;;4.27;;
1811;SDS011;904;47.814;11.134;2022-11-12T09:34:33;6.90;;;5.60;;
1811;SDS011;904;47.814;11.134;2022-11-12T09:37:00;5.83;;;3.63;;
1811;SDS011;904;47.814;11.134;2022-11-12T09:39:28;5.10;;;4.00;;
1811;SDS011;904;47.814;11.134;2022-11-12T09:41:56;6.50;;;4.50;;
1811;SDS011;904;47.814;11.134;2022-11-12T09:44:23;4.30;;;3.77;;
1811;SDS011;904;47.814;11.134;2022-11-12T09:46:51;4.50;;;3.07;;
1811;SDS011;904;47.814;11.134;2022-11-12T09:49:23;5.13;;;3.50;;
1811;SDS011;904;47.814;11.134;2022-11-12T09:51:54;4.90;;;4.07;;
1811;SDS011;904;47.814;11.134;2022-11-12T09:54:25;4.70;;;4.20;;
1811;SDS011;904;47.814;11.134;2022-11-12T09:56:53;10.07;;;8.77;;
1811;SDS011;904;47.814;11.134;2022-11-12T09:59:23;5.20;;;4.77;;
1811;SDS011;904;47.814;11.134;2022-11-12T10:01:55;5.27;;;4.37;;
1811;SDS011;904;47.814;11.134;2022-11-12T10:04:36;3.70;;;3.23;;
1811;SDS011;904;47.814;11.134;2022-11-12T10:07:25;3.63;;;3.10;;
1811;SDS011;904;47.814;11.134;2022-11-12T10:10:02;4.30;;;3.17;;
1811;SDS011;904;47.814;11.134;2022-11-12T10:12:37;5.57;;;3.07;;
1811;SDS011;904;47.814;11.134;2022-11-12T10:15:36;4.07;;;3.30;;
1811;SDS011;904;47.814;11.134;2022-11-12T10:18:33;4.53;;;3.10;;
1811;SDS011;904;47.814;11.134;2022-11-12T10:21:23;4.00;;;2.87;;
1811;SDS011;904;47.814;11.134;2022-11-12T10:23:57;4.13;;;3.27;;
1811;SDS011;904;47.814;11.134;2022-11-12T10:26:26;4.00;;;3.17;;
1811;SDS011;904;47.814;11.134;2022-11-12T10:28:57;4.13;;;3.20;;
1811;SDS011;904;47.814;11.134;2022-11-12T10:31:29;3.93;;;3.53;;
1811;SDS011;904;47.814;11.134;2022-11-12T10:34:04;3.53;;;2.90;;
1811;SDS011;904;47.814;11.134;2022-11-12T10:36:41;5.37;;;3.90;;
1811;SDS011;904;47.814;11.134;2022-11-12T10:39:24;5.37;;;3.57;;
1811;SDS011;904;47.814;11.134;2022-11-12T10:42:01;11.20;;;3.50;;
1811;SDS011;904;47.814;11.134;2022-11-12T10:44:30;6.50;;;4.27;;
1811;SDS011;904;47.814;11.134;2022-11-12T10:52:51;3.90;;;3.13;;
1811;SDS011;904;47.814;11.134;2022-11-12T10:55:21;5.30;;;3.57;;
1811;SDS011;904;47.814;11.134;2022-11-12T11:00:51;5.60;;;3.80;;
1811;SDS011;904;47.814;11.134;2022-11-12T11:03:26;6.10;;;4.07;;
1811;SDS011;904;47.814;11.134;2022-11-12T11:05:57;6.27;;;3.70;;
1811;SDS011;904;47.814;11.134;2022-11-12T11:08:33;4.70;;;3.80;;
1811;SDS011;904;47.814;11.134;2022-11-12T11:11:22;24.03;;;4.80;;
1811;SDS011;904;47.814;11.134;2022-11-12T11:13:51;11.83;;;6.07;;
1811;SDS011;904;47.814;11.134;2022-11-12T11:16:20;9.10;;;5.73;;
1811;SDS011;904;47.814;11.134;2022-11-12T11:18:50;5.47;;;3.40;;
1811;SDS011;904;47.814;11.134;2022-11-12T11:27:11;18.43;;;4.70;;
1811;SDS011;904;47.814;11.134;2022-11-12T11:29:54;10.37;;;4.57;;
1811;SDS011;904;47.814;11.134;2022-11-12T11:32:32;8.20;;;4.63;;
1811;SDS011;904;47.814;11.134;2022-11-12T11:35:16;15.73;;;4.50;;
1811;SDS011;904;47.814;11.134;2022-11-12T11:37:53;5.70;;;4.40;;
1811;SDS011;904;47.814;11.134;2022-11-12T11:40:28;4.77;;;3.80;;
1811;SDS011;904;47.814;11.134;2022-11-12T11:43:04;5.00;;;3.67;;
1811;SDS011;904;47.814;11.134;2022-11-12T11:45:49;4.00;;;3.47;;
1811;SDS011;904;47.814;11.134;2022-11-12T11:48:27;4.30;;;3.60;;
1811;SDS011;904;47.814;11.134;2022-11-12T11:51:07;4.90;;;4.30;;
1811;SDS011;904;47.814;11.134;2022-11-12T11:53:46;4.80;;;3.77;;
1811;SDS011;904;47.814;11.134;2022-11-12T11:56:22;5.90;;;3.90;;
1811;SDS011;904;47.814;11.134;2022-11-12T11:58:58;6.07;;;5.27;;
1811;SDS011;904;47.814;11.134;2022-11-12T12:01:38;6.37;;;4.60;;
1811;SDS011;904;47.814;11.134;2022-11-12T12:04:23;6.30;;;4.80;;
1811;SDS011;904;47.814;11.134;2022-11-12T12:07:04;5.67;;;5.03;;
1811;SDS011;904;47.814;11.134;2022-11-12T12:09:41;6.70;;;6.00;;
1811;SDS011;904;47.814;11.134;2022-11-12T12:12:17;6.80;;;6.10;;
1811;SDS011;904;47.814;11.134;2022-11-12T12:14:59;6.80;;;5.03;;
1811;SDS011;904;47.814;11.134;2022-11-12T12:17:37;6.33;;;5.73;;
1811;SDS011;904;47.814;11.134;2022-11-12T12:20:14;5.90;;;5.30;;
1811;SDS011;904;47.814;11.134;2022-11-12T12:22:48;5.93;;;4.97;;
1811;SDS011;904;47.814;11.134;2022-11-12T12:25:20;7.73;;;5.20;;
1811;SDS011;904;47.814;11.134;2022-11-12T12:27:52;7.20;;;5.40;;
1811;SDS011;904;47.814;11.134;2022-11-12T12:30:27;5.47;;;4.83;;
1811;SDS011;904;47.814;11.134;2022-11-12T12:33:00;8.67;;;5.27;;
1811;SDS011;904;47.814;11.134;2022-11-12T12:35:46;6.33;;;4.27;;
1811;SDS011;904;47.814;11.134;2022-11-12T12:38:22;8.37;;;6.03;;
1811;SDS011;904;47.814;11.134;2022-11-12T12:40:56;5.60;;;4.53;;
1811;SDS011;904;47.814;11.134;2022-11-12T12:43:31;6.00;;;5.40;;
1811;SDS011;904;47.814;11.134;2022-11-12T12:46:03;7.17;;;4.90;;
1811;SDS011;904;47.814;11.134;2022-11-12T12:48:35;5.33;;;4.80;;
1811;SDS011;904;47.814;11.134;2022-11-12T12:51:06;4.70;;;4.20;;
1811;SDS011;904;47.814;11.134;2022-11-12T12:53:35;6.63;;;4.60;;
1811;SDS011;904;47.814;11.134;2022-11-12T12:56:04;5.37;;;4.87;;
1811;SDS011;904;47.814;11.134;2022-11-12T12:58:54;5.90;;;4.00;;
1811;SDS011;904;47.814;11.134;2022-11-12T13:01:28;6.17;;;4.27;;
1811;SDS011;904;47.814;11.134;2022-11-12T13:03:59;5.20;;;4.43;;
1811;SDS011;904;47.814;11.134;2022-11-12T13:06:28;5.03;;;3.90;;
1811;SDS011;904;47.814;11.134;2022-11-12T13:09:00;5.17;;;4.07;;
1811;SDS011;904;47.814;11.134;2022-11-12T13:14:43;4.40;;;3.70;;
1811;SDS011;904;47.814;11.134;2022-11-12T13:22:59;4.10;;;3.70;;
1811;SDS011;904;47.814;11.134;2022-11-12T13:25:28;6.17;;;3.97;;
1811;SDS011;904;47.814;11.134;2022-11-12T13:28:04;6.67;;;4.27;;
1811;SDS011;904;47.814;11.134;2022-11-12T13:30:54;5.27;;;4.33;;
1811;SDS011;904;47.814;11.134;2022-11-12T13:33:28;6.30;;;4.03;;
1811;SDS011;904;47.814;11.134;2022-11-12T13:36:15;5.50;;;4.63;;
1811;SDS011;904;47.814;11.134;2022-11-12T13:38:50;4.90;;;4.40;;
1811;SDS011;904;47.814;11.134;2022-11-12T13:41:20;5.90;;;4.60;;
1811;SDS011;904;47.814;11.134;2022-11-12T13:44:03;5.67;;;4.67;;
1811;SDS011;904;47.814;11.134;2022-11-12T13:46:32;6.33;;;4.67;;
1811;SDS011;904;47.814;11.134;2022-11-12T13:49:01;7.37;;;4.77;;
1811;SDS011;904;47.814;11.134;2022-11-12T13:51:37;5.30;;;4.63;;
1811;SDS011;904;47.814;11.134;2022-11-12T13:54:25;6.23;;;4.93;;
1811;SDS011;904;47.814;11.134;2022-11-12T13:57:23;7.40;;;6.10;;
1811;SDS011;904;47.814;11.134;2022-11-12T14:00:09;6.70;;;5.93;;
1811;SDS011;904;47.814;11.134;2022-11-12T14:02:48;13.93;;;7.27;;
1811;SDS011;904;47.814;11.134;2022-11-12T14:05:19;8.07;;;6.80;;
1811;SDS011;904;47.814;11.134;2022-11-12T14:07:52;7.13;;;6.20;;
1811;SDS011;904;47.814;11.134;2022-11-12T14:10:33;7.87;;;6.67;;
1811;SDS011;904;47.814;11.134;2022-11-12T14:13:15;6.30;;;5.70;;
1811;SDS011;904;47.814;11.134;2022-11-12T14:16:08;6.70;;;5.80;;
1811;SDS011;904;47.814;11.134;2022-11-12T14:18:54;7.20;;;6.10;;
1811;SDS011;904;47.814;11.134;2022-11-12T14:21:42;11.00;;;8.00;;
1811;SDS011;904;47.814;11.134;2022-11-12T14:24:24;7.67;;;6.70;;
1811;SDS011;904;47.814;11.134;2022-11-12T14:26:51;8.80;;;7.90;;
1811;SDS011;904;47.814;11.134;2022-11-12T14:29:20;8.73;;;6.20;;
1811;SDS011;904;47.814;11.134;2022-11-12T14:31:47;7.43;;;6.63;;
1811;SDS011;904;47.814;11.134;2022-11-12T14:34:27;8.80;;;7.93;;
1811;SDS011;904;47.814;11.134;2022-11-12T14:36:55;10.50;;;7.60;;
1811;SDS011;904;47.814;11.134;2022-11-12T14:39:23;9.07;;;7.13;;
1811;SDS011;904;47.814;11.134;2022-11-12T14:41:52;11.30;;;10.20;;
1811;SDS011;904;47.814;11.134;2022-11-12T14:44:23;11.23;;;9.93;;
1811;SDS011;904;47.814;11.134;2022-11-12T14:46:57;18.00;;;10.00;;
1811;SDS011;904;47.814;11.134;2022-11-12T14:49:26;11.73;;;9.45;;
1811;SDS011;904;47.814;11.134;2022-11-12T14:52:02;13.35;;;9.10;;
1811;SDS011;904;47.814;11.134;2022-11-12T14:54:38;9.43;;;8.50;;
1811;SDS011;904;47.814;11.134;2022-11-12T14:57:13;15.32;;;9.18;;
1811;SDS011;904;47.814;11.134;2022-11-12T14:59:45;10.85;;;9.73;;
1811;SDS011;904;47.814;11.134;2022-11-12T15:02:15;13.95;;;8.88;;
1811;SDS011;904;47.814;11.134;2022-11-12T15:04:50;10.85;;;8.43;;
1811;SDS011;904;47.814;11.134;2022-11-12T15:07:24;12.18;;;9.57;;
1811;SDS011;904;47.814;11.134;2022-11-12T15:09:52;11.77;;;10.07;;
1811;SDS011;904;47.814;11.134;2022-11-12T15:12:20;13.77;;;11.85;;
1811;SDS011;904;47.814;11.134;2022-11-12T15:14:53;12.00;;;10.00;;
1811;SDS011;904;47.814;11.134;2022-11-12T15:17:33;12.52;;;11.02;;
1811;SDS011;904;47.814;11.134;2022-11-12T15:20:03;13.23;;;10.82;;
1811;SDS011;904;47.814;11.134;2022-11-12T15:22:32;13.68;;;11.18;;
1811;SDS011;904;47.814;11.134;2022-11-12T15:25:08;18.00;;;16.10;;
1811;SDS011;904;47.814;11.134;2022-11-12T15:27:45;18.98;;;17.17;;
1811;SDS011;904;47.814;11.134;2022-11-12T15:30:18;20.38;;;17.90;;
1811;SDS011;904;47.814;11.134;2022-11-12T15:32:57;18.40;;;15.57;;
1811;SDS011;904;47.814;11.134;2022-11-12T15:35:37;18.52;;;15.63;;
1811;SDS011;904;47.814;11.134;2022-11-12T15:38:11;16.98;;;15.18;;
1811;SDS011;904;47.814;11.134;2022-11-12T15:40:44;15.85;;;14.18;;
1811;SDS011;904;47.814;11.134;2022-11-12T15:43:13;14.27;;;12.45;;
1811;SDS011;904;47.814;11.134;2022-11-12T15:45:44;12.20;;;10.90;;
1811;SDS011;904;47.814;11.134;2022-11-12T15:48:14;13.48;;;11.88;;
1811;SDS011;904;47.814;11.134;2022-11-12T15:50:40;14.90;;;11.80;;
1811;SDS011;904;47.814;11.134;2022-11-12T15:53:07;14.95;;;12.55;;
1811;SDS011;904;47.814;11.134;2022-11-12T15:55:35;16.52;;;12.80;;